createdAt,value
2023-01-05T00:01:06.174Z,45478.16
2023-01-05T00:03:33.325Z,45510.16
2023-01-05T00:06:03.766Z,45498.16
2023-01-05T00:08:36.375Z,45480.16
2023-01-05T00:11:24.003Z,45502.16
2023-01-05T00:14:09.243Z,45510.16
2023-01-05T00:16:54.488Z,45504.16
2023-01-05T00:19:40.176Z,45504.16
2023-01-05T00:22:33.555Z,45504.16
2023-01-05T00:25:21.474Z,45500.16
2023-01-05T00:27:51.347Z,45502.16
2023-01-05T00:30:24.184Z,45494.16
2023-01-05T00:32:50.927Z,45494.16
2023-01-05T00:35:18.159Z,45490.16
2023-01-05T00:37:45.596Z,45514.13
2023-01-05T00:40:16.240Z,45498.16
2023-01-05T00:42:43.255Z,45492.16
2023-01-05T00:45:12.245Z,45498.16
2023-01-05T00:47:39.036Z,45526.13
2023-01-05T00:50:06.823Z,45506.16
2023-01-05T00:52:34.846Z,45494.16
2023-01-05T00:55:01.283Z,45510.16
2023-01-05T00:57:27.839Z,45494.16
2023-01-05T00:59:55.487Z,45498.16
2023-01-05T01:02:22.107Z,45506.16
2023-01-05T01:04:48.628Z,45514.13
2023-01-05T01:07:15.003Z,45482.16
2023-01-05T01:09:43.178Z,45506.16
2023-01-05T01:12:09.818Z,45500.16
2023-01-05T01:14:37.089Z,45494.16
2023-01-05T01:17:03.577Z,45482.16
2023-01-05T01:19:30.252Z,45510.16
2023-01-05T01:21:56.685Z,45498.16
2023-01-05T01:24:25.886Z,45514.13
2023-01-05T01:26:53.270Z,45494.16
2023-01-05T01:29:21.088Z,45494.16
2023-01-05T01:31:48.901Z,45502.16
2023-01-05T01:34:16.200Z,45482.16
2023-01-05T01:36:43.428Z,45518.13
2023-01-05T01:39:12.245Z,45500.16
2023-01-05T01:41:42.035Z,45504.16
2023-01-05T01:44:46.588Z,45502.16
2023-01-05T01:47:39.943Z,45504.16
2023-01-05T01:50:20.147Z,45510.16
2023-01-05T01:52:50.143Z,45522.13
2023-01-05T01:55:17.917Z,45506.16
2023-01-05T01:57:47.410Z,45512.16
2023-01-05T02:00:15.102Z,45506.16
2023-01-05T02:02:46.073Z,45512.16
2023-01-05T02:05:17.111Z,45500.16
2023-01-05T02:07:46.105Z,45520.13
2023-01-05T02:10:16.625Z,45514.13
2023-01-05T02:12:46.046Z,45520.13
2023-01-05T02:15:24.205Z,45520.13
2023-01-05T02:18:08.971Z,45494.16
2023-01-05T02:20:45.836Z,45498.16
2023-01-05T02:23:22.607Z,45506.16
2023-01-05T02:25:58.786Z,45506.16
2023-01-05T02:28:44.101Z,45522.13
2023-01-05T02:31:24.908Z,45516.13
2023-01-05T02:34:09.399Z,45506.16
2023-01-05T02:36:57.652Z,45486.16
2023-01-05T02:39:30.815Z,45506.16
2023-01-05T02:42:05.288Z,45506.16
2023-01-05T02:44:34.146Z,45506.16
2023-01-05T02:47:00.629Z,45510.16
2023-01-05T02:49:29.547Z,45508.16
2023-01-05T02:51:59.990Z,45530.13
2023-01-05T02:54:33.937Z,45506.16
2023-01-05T02:57:45.202Z,45516.13
2023-01-05T03:00:30.588Z,45506.16
2023-01-05T03:03:06.851Z,45512.16
2023-01-05T03:05:39.067Z,45510.16
2023-01-05T03:08:10.397Z,45518.13
2023-01-05T03:11:16.586Z,45502.16
2023-01-05T03:13:47.730Z,45538.13
2023-01-05T03:16:25.165Z,45522.13
2023-01-05T03:19:14.433Z,45514.13
2023-01-05T03:21:59.943Z,45510.16
2023-01-05T03:24:49.909Z,45502.16
2023-01-05T03:27:35.697Z,45522.13
2023-01-05T03:30:23.841Z,45506.16
2023-01-05T03:33:15.664Z,45516.13
2023-01-05T03:35:48.053Z,45524.13
2023-01-05T03:38:23.235Z,45534.13
2023-01-05T03:40:55.865Z,45512.16
2023-01-05T03:43:22.882Z,45514.13
2023-01-05T03:45:53.817Z,45518.13
2023-01-05T03:48:25.648Z,45528.13
2023-01-05T03:50:52.193Z,45518.13
2023-01-05T03:53:20.430Z,45506.16
2023-01-05T03:55:46.907Z,45526.13
2023-01-05T03:58:14.044Z,45538.13
2023-01-05T04:00:44.166Z,45530.13
2023-01-05T04:03:13.205Z,45522.13
2023-01-05T04:05:40.169Z,45538.13
2023-01-05T04:08:07.847Z,45510.16
2023-01-05T04:10:35.936Z,45522.13
2023-01-05T04:13:02.335Z,45526.13
2023-01-05T04:15:29.192Z,45514.13
2023-01-05T04:17:55.969Z,45504.16
2023-01-05T04:20:22.451Z,45518.13
2023-01-05T04:22:50.012Z,45540.13
2023-01-05T04:25:19.349Z,45538.13
2023-01-05T04:27:46.625Z,45516.13
2023-01-05T04:30:13.386Z,45534.13
2023-01-05T04:32:39.822Z,45498.16
2023-01-05T04:35:11.528Z,45494.16
2023-01-05T04:37:39.793Z,45544.13
2023-01-05T04:40:07.179Z,45514.13
2023-01-05T04:42:41.469Z,45510.16
2023-01-05T04:45:10.308Z,45512.16
2023-01-05T04:47:37.351Z,45530.13
2023-01-05T04:50:04.520Z,45534.13
2023-01-05T04:52:31.579Z,45522.13
2023-01-05T04:54:58.477Z,45518.13
2023-01-05T04:57:26.949Z,45528.13
2023-01-05T04:59:53.448Z,45514.13
2023-01-05T05:02:20.075Z,45528.13
2023-01-05T05:04:49.381Z,45526.13
2023-01-05T05:07:17.100Z,45540.13
2023-01-05T05:09:43.567Z,45518.13
2023-01-05T05:12:10.850Z,45502.16
2023-01-05T05:14:38.532Z,45526.13
2023-01-05T05:17:05.600Z,45538.13
2023-01-05T05:19:32.223Z,45528.13
2023-01-05T05:21:59.283Z,45542.13
2023-01-05T05:24:26.601Z,45494.16
2023-01-05T05:26:53.101Z,45538.13
2023-01-05T05:29:19.511Z,45534.13
2023-01-05T05:31:46.089Z,45530.13
2023-01-05T05:34:12.593Z,45524.13
2023-01-05T05:36:39.014Z,45518.13
2023-01-05T05:39:05.448Z,45518.13
2023-01-05T05:41:31.842Z,45520.13
2023-01-05T05:44:00.834Z,45522.13
2023-01-05T05:46:28.215Z,45514.13
2023-01-05T05:48:55.958Z,45522.13
2023-01-05T05:51:23.265Z,45524.13
2023-01-05T05:53:49.851Z,45524.13
2023-01-05T05:56:16.624Z,45534.13
2023-01-05T05:58:43.135Z,45534.13
2023-01-05T06:01:10.386Z,45546.13
2023-01-05T06:03:36.855Z,45514.13
2023-01-05T06:06:04.131Z,45514.13
2023-01-05T06:08:30.772Z,45518.13
2023-01-05T06:10:57.769Z,45520.13
2023-01-05T06:13:24.728Z,45534.13
2023-01-05T06:15:51.180Z,45526.13
2023-01-05T06:18:17.871Z,45544.13
2023-01-05T06:20:44.332Z,45558.09
2023-01-05T06:23:10.714Z,45522.13
2023-01-05T06:25:37.307Z,45520.13
2023-01-05T06:28:04.025Z,45534.13
2023-01-05T06:30:30.530Z,45516.13
2023-01-05T06:32:56.959Z,45526.13
2023-01-05T06:35:23.464Z,45546.13
2023-01-05T06:37:49.853Z,45538.13
2023-01-05T06:40:16.321Z,45548.13
2023-01-05T06:42:43.409Z,45552.13
2023-01-05T06:45:13.331Z,45536.13
2023-01-05T06:47:40.228Z,45538.13
2023-01-05T06:50:07.741Z,45542.13
2023-01-05T06:52:36.747Z,45538.13
2023-01-05T06:55:04.469Z,45534.13
2023-01-05T06:57:30.923Z,45528.13
2023-01-05T06:59:57.308Z,45542.13
2023-01-05T07:02:23.741Z,45542.13
2023-01-05T07:04:50.131Z,45540.13
2023-01-05T07:07:16.560Z,45534.13
2023-01-05T07:09:45.222Z,45546.13
2023-01-05T07:12:11.599Z,45538.13
2023-01-05T07:14:38.209Z,45546.13
2023-01-05T07:17:05.159Z,45546.13
2023-01-05T07:19:31.683Z,45554.09
2023-01-05T07:21:58.846Z,45526.13
2023-01-05T07:24:25.453Z,45548.13
2023-01-05T07:26:51.815Z,45528.13
2023-01-05T07:29:18.867Z,45554.09
2023-01-05T07:31:47.410Z,45548.13
2023-01-05T07:34:15.020Z,45542.13
2023-01-05T07:36:41.397Z,45536.13
2023-01-05T07:39:07.803Z,45534.13
2023-01-05T07:41:34.221Z,45540.13
2023-01-05T07:44:00.627Z,45562.09
2023-01-05T07:46:27.021Z,45542.13
2023-01-05T07:48:53.412Z,45546.13
2023-01-05T07:51:20.848Z,45538.13
2023-01-05T07:53:48.009Z,45538.13
2023-01-05T07:56:14.775Z,45560.09
2023-01-05T07:58:41.666Z,45546.13
2023-01-05T08:01:10.943Z,45546.13
2023-01-05T08:03:37.586Z,45552.13
2023-01-05T08:06:06.847Z,45554.09
2023-01-05T08:08:33.352Z,45550.13
2023-01-05T08:11:00.118Z,45534.13
2023-01-05T08:13:58.654Z,45538.13
2023-01-05T08:16:25.581Z,45554.09
2023-01-05T08:18:52.197Z,45542.13
2023-01-05T08:21:18.675Z,45554.09
2023-01-05T08:23:45.791Z,45546.13
2023-01-05T08:26:18.907Z,45526.13
2023-01-05T08:28:45.646Z,45534.13
2023-01-05T08:31:24.350Z,45546.13
2023-01-05T08:33:50.839Z,45550.13
2023-01-05T08:36:19.769Z,45536.13
2023-01-05T08:38:48.230Z,45542.13
2023-01-05T08:41:20.605Z,45540.13
2023-01-05T08:43:54.003Z,45552.13
2023-01-05T08:46:21.587Z,45546.13
2023-01-05T08:48:54.692Z,45546.13
2023-01-05T08:51:21.805Z,45536.13
2023-01-05T08:53:48.804Z,45538.13
2023-01-05T08:56:15.442Z,45538.13
2023-01-05T08:58:42.641Z,45554.09
2023-01-05T09:01:13.200Z,45544.13
2023-01-05T09:03:39.963Z,45540.13
2023-01-05T09:06:09.249Z,45534.13
2023-01-05T09:08:36.120Z,45530.13
2023-01-05T09:11:22.790Z,45538.13
2023-01-05T09:13:52.083Z,45550.13
2023-01-05T09:19:07.547Z,45546.13
2023-01-05T09:21:34.349Z,45544.13
2023-01-05T09:24:00.797Z,45534.13
2023-01-05T09:26:27.345Z,45534.13
2023-01-05T09:28:54.774Z,45546.13
2023-01-05T09:31:22.772Z,45546.13
2023-01-05T09:33:49.405Z,45522.13
2023-01-05T09:36:17.858Z,45546.13
2023-01-05T09:38:52.155Z,45534.13
2023-01-05T09:41:44.868Z,45546.13
2023-01-05T09:44:30.309Z,45510.16
2023-01-05T09:47:05.357Z,45534.13
2023-01-05T09:49:33.865Z,45538.13
2023-01-05T09:52:02.841Z,45530.13
2023-01-05T09:54:33.088Z,45534.13
2023-01-05T09:57:09.423Z,45530.13
2023-01-05T09:59:40.706Z,45538.13
2023-01-05T10:02:19.389Z,45534.13
2023-01-05T10:04:47.633Z,45538.13
2023-01-05T10:07:29.941Z,45526.13
2023-01-05T10:10:02.032Z,45550.13
2023-01-05T10:13:02.866Z,45538.13
2023-01-05T10:15:52.218Z,45546.13
2023-01-05T10:18:23.898Z,45542.13
2023-01-05T10:21:03.559Z,45552.13
2023-01-05T10:23:51.862Z,45530.13
2023-01-05T10:26:58.129Z,45534.13
2023-01-05T10:29:47.299Z,45546.13
2023-01-05T10:32:28.139Z,45540.13
2023-01-05T10:34:59.294Z,45542.13
2023-01-05T10:37:43.648Z,45546.13
2023-01-05T10:40:37.858Z,45514.13
2023-01-05T10:43:39.060Z,45526.13
2023-01-05T10:48:56.507Z,45514.13
2023-01-05T10:51:23.088Z,45514.13
2023-01-05T10:53:49.489Z,45514.13
2023-01-05T10:56:23.522Z,45538.13
2023-01-05T10:59:07.637Z,45522.13
2023-01-05T11:01:36.780Z,45524.13
2023-01-05T11:07:07.002Z,45514.13
2023-01-05T11:09:39.286Z,45530.13
2023-01-05T11:12:06.062Z,45538.13
2023-01-05T11:14:44.248Z,45526.13
2023-01-05T11:17:17.646Z,45508.16
2023-01-05T11:19:45.756Z,45522.13
2023-01-05T11:22:35.522Z,45518.13
2023-01-05T11:25:27.246Z,45542.13
2023-01-05T11:28:16.771Z,45520.13
2023-01-05T11:31:04.909Z,45532.13
2023-01-05T11:33:35.288Z,45498.16
2023-01-05T11:36:04.930Z,45510.16
2023-01-05T11:38:32.198Z,45510.16
2023-01-05T11:41:00.986Z,45514.13
2023-01-05T11:43:32.298Z,45528.13
2023-01-05T11:46:02.268Z,45498.16
2023-01-05T11:48:32.290Z,45508.16
2023-01-05T11:50:59.389Z,45510.16
2023-01-05T11:53:31.793Z,45510.16
2023-01-05T11:56:05.461Z,45506.16
2023-01-05T11:58:46.243Z,45504.16
2023-01-05T12:01:46.596Z,45504.16
2023-01-05T12:04:25.911Z,45502.16
2023-01-05T12:07:08.764Z,45494.16
2023-01-05T12:09:38.172Z,45502.16
2023-01-05T12:12:34.921Z,45488.16
2023-01-05T12:15:13.993Z,45500.16
2023-01-05T12:17:59.273Z,45494.16
2023-01-05T12:20:40.625Z,45498.16
2023-01-05T12:23:32.272Z,45514.13
2023-01-05T12:26:10.682Z,45494.16
2023-01-05T12:35:06.357Z,45486.16
2023-01-05T12:37:44.191Z,45498.16
2023-01-05T12:40:29.642Z,45492.16
2023-01-05T12:42:55.972Z,45492.16
2023-01-05T12:45:44.241Z,45482.16
2023-01-05T12:48:19.060Z,45480.16
2023-01-05T12:51:04.815Z,45492.16
2023-01-05T12:53:40.519Z,45470.19
2023-01-05T12:56:18.181Z,45474.16
2023-01-05T12:58:54.397Z,45462.19
2023-01-05T13:01:29.623Z,45478.16
2023-01-05T13:04:10.249Z,45482.16
2023-01-05T13:06:42.506Z,45490.16
2023-01-05T13:09:30.919Z,45470.19
2023-01-05T13:12:07.403Z,45476.16
2023-01-05T13:14:36.644Z,45474.16
2023-01-05T13:17:33.419Z,45480.16
2023-01-05T13:20:16.139Z,45478.16
2023-01-05T13:22:44.753Z,45474.16
2023-01-05T13:25:21.076Z,45474.16
2023-01-05T13:27:47.642Z,45458.19
2023-01-05T13:30:26.023Z,45472.16
2023-01-05T13:33:18.569Z,45462.19
2023-01-05T13:35:48.320Z,45454.19
2023-01-05T13:38:38.748Z,45454.19
2023-01-05T13:41:21.632Z,45432.19
2023-01-05T13:44:06.581Z,45434.19
2023-01-05T13:46:57.137Z,45448.19
2023-01-05T13:50:19.595Z,45426.22
2023-01-05T13:53:09.234Z,45454.19
2023-01-05T13:55:45.268Z,45462.19
2023-01-05T14:01:15.518Z,45458.19
2023-01-05T14:03:50.409Z,45466.19
2023-01-05T14:06:27.368Z,45450.19
2023-01-05T14:11:36.066Z,45458.19
2023-01-05T14:14:25.152Z,45458.19
2023-01-05T14:16:52.955Z,45464.19
2023-01-05T14:19:37.616Z,45470.19
2023-01-05T14:22:19.253Z,45468.19
2023-01-05T14:24:48.973Z,45470.19
2023-01-05T14:27:18.305Z,45474.16
2023-01-05T14:29:44.983Z,45462.19
2023-01-05T14:32:22.411Z,45452.19
2023-01-05T14:34:52.831Z,45468.19
2023-01-05T14:37:32.733Z,45476.16
2023-01-05T14:40:04.358Z,45466.19
2023-01-05T14:42:41.165Z,45470.19
2023-01-05T14:45:19.968Z,45478.16
2023-01-05T14:47:48.816Z,45480.16
2023-01-05T14:50:31.212Z,45478.16
2023-01-05T14:52:59.561Z,45484.16
2023-01-05T14:55:55.072Z,45486.16
2023-01-05T14:58:33.459Z,45494.16
2023-01-05T15:01:05.117Z,45474.16
2023-01-05T15:04:03.827Z,45494.16
2023-01-05T15:06:53.853Z,45486.16
2023-01-05T15:09:41.307Z,45478.16
2023-01-05T15:12:23.279Z,45496.16
2023-01-05T15:15:20.244Z,45490.16
2023-01-05T15:18:01.826Z,45502.16
2023-01-05T15:20:44.375Z,45502.16
2023-01-05T15:23:23.035Z,45494.16
2023-01-05T15:26:03.151Z,45478.16
2023-01-05T15:28:52.760Z,45500.16
2023-01-05T15:31:53.228Z,45498.16
2023-01-05T15:34:27.031Z,45482.16
2023-01-05T15:37:02.563Z,45498.16
2023-01-05T15:39:37.557Z,45482.16
2023-01-05T15:42:08.997Z,45488.16
2023-01-05T15:44:43.001Z,45506.16
2023-01-05T15:47:10.853Z,45494.16
2023-01-05T15:49:39.830Z,45490.16
2023-01-05T15:52:17.451Z,45504.16
2023-01-05T15:54:57.191Z,45502.16
2023-01-05T15:57:23.569Z,45496.16
2023-01-05T15:59:51.802Z,45506.16
2023-01-05T16:02:25.889Z,45512.16
2023-01-05T16:05:20.504Z,45514.13
2023-01-05T16:07:54.228Z,45504.16
2023-01-05T16:10:38.055Z,45510.16
2023-01-05T16:13:33.806Z,45500.16
2023-01-05T16:16:03.085Z,45502.16
2023-01-05T16:18:35.143Z,45506.16
2023-01-05T16:21:17.011Z,45522.13
2023-01-05T16:23:53.136Z,45506.16
2023-01-05T16:26:19.917Z,45508.16
2023-01-05T16:28:46.642Z,45508.16
2023-01-05T16:31:15.786Z,45518.13
2023-01-05T16:33:42.315Z,45528.13
2023-01-05T16:36:18.288Z,45502.16
2023-01-05T16:38:45.072Z,45494.16
2023-01-05T16:41:19.694Z,45496.16
2023-01-05T16:43:52.031Z,45526.13
2023-01-05T16:46:25.283Z,45498.16
2023-01-05T16:48:55.037Z,45506.16
2023-01-05T16:51:22.624Z,45500.16
2023-01-05T16:53:53.392Z,45518.13
2023-01-05T16:56:52.332Z,45510.16
2023-01-05T16:59:50.003Z,45502.16
2023-01-05T17:02:54.202Z,45504.16
2023-01-05T17:05:26.976Z,45520.13
2023-01-05T17:08:05.465Z,45506.16
2023-01-05T17:10:32.548Z,45514.13
2023-01-05T17:13:08.251Z,45518.13
2023-01-05T17:15:36.148Z,45502.16
2023-01-05T17:20:55.162Z,45496.16
2023-01-05T17:23:25.248Z,45514.13
2023-01-05T17:28:24.873Z,45510.16
2023-01-05T17:30:52.870Z,45530.13
2023-01-05T17:33:19.800Z,45512.16
2023-01-05T17:38:15.099Z,45518.13
2023-01-05T17:40:42.271Z,45510.16
2023-01-05T17:43:09.112Z,45540.13
2023-01-05T17:45:39.660Z,45520.13
2023-01-05T17:48:06.408Z,45514.13
2023-01-05T17:50:33.293Z,45516.13
2023-01-05T17:53:01.562Z,45526.13
2023-01-05T17:55:29.331Z,45514.13
2023-01-05T17:57:57.670Z,45526.13
2023-01-05T18:00:27.638Z,45494.16
2023-01-05T18:02:54.899Z,45518.13
2023-01-05T18:05:22.202Z,45510.16
2023-01-05T18:07:48.769Z,45528.13
2023-01-05T18:10:19.342Z,45518.13
2023-01-05T18:12:45.805Z,45526.13
2023-01-05T18:15:14.146Z,45510.16
2023-01-05T18:17:40.850Z,45526.13
2023-01-05T18:20:08.043Z,45494.16
2023-01-05T18:22:34.462Z,45530.13
2023-01-05T18:25:00.937Z,45522.13
2023-01-05T18:27:27.355Z,45518.13
2023-01-05T18:29:53.876Z,45542.13
2023-01-05T18:32:20.262Z,45514.13
2023-01-05T18:34:46.684Z,45528.13
2023-01-05T18:37:21.443Z,45528.13
2023-01-05T18:39:48.290Z,45542.13
2023-01-05T18:42:14.707Z,45506.16
2023-01-05T18:44:41.389Z,45526.13
2023-01-05T18:47:08.752Z,45518.13
2023-01-05T18:49:35.147Z,45534.13
2023-01-05T18:52:01.506Z,45506.16
2023-01-05T18:54:28.324Z,45506.16
2023-01-05T18:56:54.703Z,45526.13
2023-01-05T18:59:21.324Z,45524.13
2023-01-05T19:01:47.730Z,45524.13
2023-01-05T19:04:15.689Z,45514.13
2023-01-05T19:06:42.523Z,45530.13
2023-01-05T19:09:11.287Z,45528.13
2023-01-05T19:11:39.374Z,45538.13
2023-01-05T19:14:06.178Z,45540.13
2023-01-05T19:16:35.391Z,45518.13
2023-01-05T19:19:08.174Z,45534.13
2023-01-05T19:21:37.955Z,45512.16
2023-01-05T19:24:08.013Z,45522.13
2023-01-05T19:26:36.120Z,45526.13
2023-01-05T19:29:06.052Z,45538.13
2023-01-05T19:31:32.926Z,45522.13
2023-01-05T19:33:59.361Z,45534.13
2023-01-05T19:36:34.706Z,45526.13
2023-01-05T19:39:13.857Z,45526.13
2023-01-05T19:41:43.775Z,45510.16
2023-01-05T19:44:16.147Z,45518.13
2023-01-05T19:46:43.839Z,45528.13
2023-01-05T19:49:17.497Z,45526.13
2023-01-05T19:51:45.179Z,45516.13
2023-01-05T19:54:12.894Z,45510.16
2023-01-05T19:56:40.282Z,45522.13
2023-01-05T19:59:13.093Z,45524.13
2023-01-05T20:01:39.513Z,45538.13
2023-01-05T20:04:06.363Z,45526.13
2023-01-05T20:06:37.896Z,45534.13
2023-01-05T20:09:09.249Z,45526.13
2023-01-05T20:11:45.607Z,45512.16
2023-01-05T20:14:11.999Z,45522.13
2023-01-05T20:16:40.002Z,45518.13
2023-01-05T20:19:06.931Z,45522.13
2023-01-05T20:21:33.796Z,45510.16
2023-01-05T20:24:01.998Z,45510.16
2023-01-05T20:26:30.559Z,45530.13
2023-01-05T20:29:00.554Z,45516.13
2023-01-05T20:31:36.276Z,45510.16
2023-01-05T20:34:07.861Z,45516.13
2023-01-05T20:36:34.811Z,45516.13
2023-01-05T20:39:05.876Z,45534.13
2023-01-05T20:41:36.812Z,45514.13
2023-01-05T20:44:04.105Z,45522.13
2023-01-05T20:46:35.433Z,45512.16
2023-01-05T20:49:02.274Z,45506.16
2023-01-05T20:51:29.017Z,45542.13
2023-01-05T20:53:57.991Z,45524.13
2023-01-05T20:56:26.887Z,45518.13
2023-01-05T20:58:54.638Z,45510.16
2023-01-05T21:01:22.203Z,45506.16
2023-01-05T21:03:50.203Z,45518.13
2023-01-05T21:06:18.973Z,45518.13
2023-01-05T21:08:48.589Z,45506.16
2023-01-05T21:11:17.333Z,45518.13
2023-01-05T21:13:49.463Z,45518.13
2023-01-05T21:16:24.671Z,45514.13
2023-01-05T21:18:51.241Z,45514.13
2023-01-05T21:21:19.364Z,45510.16
2023-01-05T21:23:47.527Z,45510.16
2023-01-05T21:26:15.551Z,45526.13
2023-01-05T21:28:43.235Z,45514.13
2023-01-05T21:31:12.687Z,45522.13
2023-01-05T21:33:40.301Z,45514.13
2023-01-05T21:36:07.669Z,45520.13
2023-01-05T21:39:01.849Z,45534.13
2023-01-05T21:41:41.141Z,45522.13
2023-01-05T21:44:10.589Z,45514.13
2023-01-05T21:46:38.349Z,45534.13
2023-01-05T21:49:05.189Z,45516.13
2023-01-05T21:51:50.236Z,45506.16
2023-01-05T21:54:36.135Z,45528.13
2023-01-05T21:57:03.158Z,45548.13
2023-01-05T21:59:29.928Z,45538.13
2023-01-05T22:01:56.490Z,45530.13
2023-01-05T22:04:23.088Z,45526.13
2023-01-05T22:06:50.406Z,45514.13
2023-01-05T22:09:16.930Z,45530.13
2023-01-05T22:11:43.553Z,45522.13
2023-01-05T22:14:10.142Z,45518.13
2023-01-05T22:16:37.162Z,45534.13
2023-01-05T22:19:03.571Z,45530.13
2023-01-05T22:21:30.937Z,45526.13
2023-01-05T22:23:58.181Z,45522.13
2023-01-05T22:26:24.679Z,45522.13
2023-01-05T22:28:52.107Z,45518.13
2023-01-05T22:31:24.842Z,45542.13
2023-01-05T22:33:53.648Z,45526.13
2023-01-05T22:36:21.635Z,45514.13
2023-01-05T22:38:49.520Z,45510.16
2023-01-05T22:41:19.622Z,45512.16
2023-01-05T22:43:46.581Z,45530.13
2023-01-05T22:46:19.170Z,45542.13
2023-01-05T22:48:47.029Z,45534.13
2023-01-05T22:51:22.620Z,45506.16
2023-01-05T22:53:49.852Z,45538.13
2023-01-05T22:56:17.905Z,45534.13
2023-01-05T22:58:44.623Z,45520.13
2023-01-05T23:01:12.370Z,45518.13
2023-01-05T23:03:40.182Z,45520.13
2023-01-05T23:06:07.051Z,45512.16
2023-01-05T23:08:35.299Z,45518.13
2023-01-05T23:11:04.655Z,45518.13
2023-01-05T23:13:31.214Z,45502.16
2023-01-05T23:15:57.981Z,45526.13
2023-01-05T23:18:25.566Z,45504.16
2023-01-05T23:20:56.995Z,45522.13
2023-01-05T23:23:23.946Z,45518.13
2023-01-05T23:25:51.751Z,45514.13
2023-01-05T23:28:19.785Z,45518.13
2023-01-05T23:30:47.979Z,45538.13
2023-01-05T23:33:16.226Z,45534.13
2023-01-05T23:35:43.484Z,45506.16
2023-01-05T23:38:10.630Z,45506.16
2023-01-05T23:40:45.132Z,45526.13
2023-01-05T23:43:13.245Z,45522.13
2023-01-05T23:45:42.856Z,45514.13
2023-01-05T23:48:10.268Z,45518.13
2023-01-05T23:50:37.085Z,45510.16
2023-01-05T23:53:03.906Z,45538.13
2023-01-05T23:55:30.277Z,45510.16
2023-01-05T23:57:58.643Z,45518.13
